Flight Track Log - Related Links

Times and Time Zones

All times are in EDT time to prevent confusion due to time zone crossing. See the FDX1347 flight status page for this flight to view local times or setup timezone preferences in your user account.


Time Position Orientation Groundspeed Altitude Reporting Facility
EDT Latitude Longitude Course Direction KTS MPH feet Rate Location/Type
Fri 10:08:36 PM 42.7256 -73.8108 259° West 165 190 1,400  Level Boston Center
Fri 10:09:25 PM 42.7186 -73.8617 259° West 211 243 3,300 2,529 Climbing Boston Center
Fri 10:10:37 PM 42.7342 -73.9664 281° West 261 300 6,500 2,864 Climbing Boston Center
Fri 10:11:37 PM 42.7119 -74.0592 252° West 255 293 9,600 2,600 Climbing Boston Center
Fri 10:12:37 PM 42.6542 -74.1536 230° Southwest 281 323 11,700 2,211 Climbing Boston Center
Fri 10:18:35 PM 42.2740 -74.7950 230° Southwest 389 448 25,000 2,010 Climbing FlightAware ADS-B
Fri 10:19:14 PM 42.2370 -74.8580 232° Southwest 389 448 25,000 1,648 Level FlightAware ADS-B
Fri 10:20:06 PM 42.1760 -74.9700 234° Southwest 399 459 27,500 2,230 Climbing FlightAware ADS-B
Fri 10:21:07 PM 42.1160 -75.1230 242° Southwest 408 470 29,200 1,864 Climbing FlightAware ADS-B
Fri 10:21:49 PM 42.0790 -75.2100 240° Southwest 399 459 30,700 2,000 Climbing FlightAware ADS-B
Fri 10:22:22 PM 42.0480 -75.2829 240° Southwest 395 455 31,700 1,810 Climbing FlightAware ADS-B
Fri 10:22:52 PM 42.0207 -75.3491 241° Southwest 393 452 32,600 1,701 Climbing FlightAware ADS-B
Fri 10:23:29 PM 41.9893 -75.4280 242° Southwest 389 448 33,600 1,412 Climbing FlightAware ADS-B
Fri 10:24:00 PM 41.9636 -75.4922 242° Southwest 393 452 34,200 1,355 Climbing FlightAware ADS-B
Fri 10:24:31 PM 41.9368 -75.5585 241° Southwest 391 450 35,000 1,325 Climbing FlightAware ADS-B
Fri 10:25:17 PM 41.8972 -75.6583 242° Southwest 394 453 35,900 1,121 Climbing FlightAware ADS-B
Fri 10:26:02 PM 41.8577 -75.7559 242° Southwest 398 458 36,700 1,154 Climbing FlightAware ADS-B
Fri 10:26:35 PM 41.8288 -75.8271 241° Southwest 394 453 37,400 1,200 Climbing FlightAware ADS-B
Fri 10:27:07 PM 41.8009 -75.8953 241° Southwest 392 451 38,000 1,048 Climbing FlightAware ADS-B
Fri 10:27:38 PM 41.7737 -75.9614 241° Southwest 392 451 38,500 871 Climbing FlightAware ADS-B
Fri 10:28:09 PM 41.7468 -76.0276 241° Southwest 394 453 38,900 646 Climbing FlightAware ADS-B
Fri 10:28:43 PM 41.7172 -76.1004 241° Southwest 399 459 39,200 554 Climbing FlightAware ADS-B
Fri 10:29:14 PM 41.6895 -76.1680 241° Southwest 403 464 39,500 787 Climbing FlightAware ADS-B
Fri 10:29:44 PM 41.6626 -76.2335 241° Southwest 404 465 40,000 462 Climbing FlightAware ADS-B
Fri 10:30:19 PM 41.6314 -76.3074 241° Southwest 399 459 40,000  Level FlightAware ADS-B
Fri 10:30:49 PM 41.6046 -76.3720 241° Southwest 399 459 40,000  Level FlightAware ADS-B
Fri 10:31:19 PM 41.5775 -76.4387 242° Southwest 399 459 40,000  Level FlightAware ADS-B
Fri 10:31:49 PM 41.5504 -76.5036 241° Southwest 402 463 40,000  Level FlightAware ADS-B
Fri 10:32:19 PM 41.5232 -76.5688 241° Southwest 405 466 40,000  Level FlightAware ADS-B
Fri 10:32:51 PM 41.4945 -76.6386 241° Southwest 406 467 40,000  Level FlightAware ADS-B
Fri 10:33:22 PM 41.4657 -76.7062 240° Southwest 405 466 40,000  Level FlightAware ADS-B
Fri 10:33:58 PM 41.4330 -76.7830 240° Southwest 406 467 40,000  Level FlightAware ADS-B
Fri 10:34:09 PM 41.4235 -76.8067 242° Southwest 406 467 40,000  Level FlightAware ADS-B
Fri 10:34:39 PM 41.3957 -76.8744 241° Southwest 406 467 40,000  Level FlightAware ADS-B
Fri 10:35:09 PM 41.3679 -76.9398 240° Southwest 406 467 40,000  Level FlightAware ADS-B
Fri 10:35:40 PM 41.3400 -77.0050 240° Southwest 406 467 40,000  Level FlightAware ADS-B
Fri 10:36:10 PM 41.3125 -77.0702 241° Southwest 405 466 40,000  Level FlightAware ADS-B
Fri 10:36:41 PM 41.2840 -77.1374 241° Southwest 405 466 40,000  Level FlightAware ADS-B
Fri 10:37:14 PM 41.2536 -77.2086 240° Southwest 404 465 40,000  Level FlightAware ADS-B
Fri 10:38:03 PM 41.2077 -77.3167 241° Southwest 404 465 40,000  Level FlightAware ADS-B
Fri 10:38:52 PM 41.1670 -77.4140 241° Southwest 404 465 40,000  Level FlightAware ADS-B
Fri 10:39:32 PM 41.1310 -77.4970 240° Southwest 402 463 40,000  Level FlightAware ADS-B
Fri 10:40:12 PM 41.0920 -77.5850 240° Southwest 401 461 40,000  Level FlightAware ADS-B
Fri 10:40:51 PM 41.0533 -77.6765 241° Southwest 400 460 40,000  Level FlightAware ADS-B
Fri 10:41:37 PM 41.0150 -77.7660 240° Southwest 399 459 40,000  Level FlightAware ADS-B
Fri 10:42:10 PM 40.9809 -77.8444 240° Southwest 400 460 40,000  Level FlightAware ADS-B
Fri 10:43:06 PM 40.9291 -77.9630 240° Southwest 401 461 40,000  Level FlightAware ADS-B
Fri 10:43:47 PM 40.8910 -78.0420 237° Southwest 400 460 40,000  Level FlightAware ADS-B
Fri 10:44:27 PM 40.8510 -78.1210 236° Southwest 401 461 40,000  Level FlightAware ADS-B
Fri 10:49:08 PM 40.5710 -78.6700 236° Southwest 407 468 40,000  Level FlightAware ADS-B
Fri 10:49:52 PM 40.5070 -78.7960 236° Southwest 407 468 40,000  Level FlightAware ADS-B
Fri 10:50:32 PM 40.4660 -78.8750 236° Southwest 406 467 40,000  Level FlightAware ADS-B
Fri 10:51:18 PM 40.4180 -78.9690 236° Southwest 403 464 40,000  Level FlightAware ADS-B
Fri 10:51:58 PM 40.3750 -79.0520 236° Southwest 402 463 40,000  Level FlightAware ADS-B
Fri 10:52:38 PM 40.3330 -79.1320 235° Southwest 403 464 40,000  Level FlightAware ADS-B
Fri 10:53:24 PM 40.2850 -79.2250 236° Southwest 401 461 40,000  Level FlightAware ADS-B
Fri 10:54:04 PM 40.2430 -79.3030 235° Southwest 402 463 40,000  Level FlightAware ADS-B
Fri 10:54:48 PM 40.1970 -79.3910 236° Southwest 402 463 40,000  Level FlightAware ADS-B
Fri 10:55:24 PM 40.1590 -79.4660 236° Southwest 403 464 40,000  Level FlightAware ADS-B
Fri 10:56:38 PM 40.0810 -79.6120 235° Southwest 405 466 40,000  Level FlightAware ADS-B
Fri 10:57:34 PM 40.0200 -79.7270 235° Southwest 408 470 40,000  Level FlightAware ADS-B
Fri 10:58:28 PM 39.9630 -79.8350 235° Southwest 407 468 40,000  Level FlightAware ADS-B
Fri 10:59:08 PM 39.9210 -79.9130 235° Southwest 407 468 40,000  Level FlightAware ADS-B
Fri 10:59:54 PM 39.8700 -80.0100 236° Southwest 408 470 40,000  Level FlightAware ADS-B
Fri 11:04:09 PM 39.5940 -80.5190 235° Southwest 410 472 40,000  Level FlightAware ADS-B
Fri 11:04:57 PM 39.5420 -80.6130 234° Southwest 408 470 40,000  Level FlightAware ADS-B
Fri 11:05:39 PM 39.4940 -80.7020 235° Southwest 410 472 40,000  Level FlightAware ADS-B
Fri 11:06:22 PM 39.4480 -80.7850 234° Southwest 408 470 40,000  Level FlightAware ADS-B
Fri 11:07:03 PM 39.4020 -80.8710 235° Southwest 408 470 40,000  Level FlightAware ADS-B
Fri 11:07:43 PM 39.3590 -80.9470 234° Southwest 408 470 40,000  Level FlightAware ADS-B
Fri 11:08:28 PM 39.3090 -81.0380 235° Southwest 407 468 40,000  Level FlightAware ADS-B
Fri 11:09:10 PM 39.2630 -81.1210 234° Southwest 405 466 40,000  Level FlightAware ADS-B
Fri 11:09:54 PM 39.2150 -81.2070 234° Southwest 405 466 40,000  Level FlightAware ADS-B
Fri 11:11:02 PM 39.1410 -81.3400 234° Southwest 402 463 40,000  Level FlightAware ADS-B
Fri 11:11:58 PM 39.0820 -81.4470 235° Southwest 404 465 40,000  Level FlightAware ADS-B
Fri 11:12:38 PM 39.0380 -81.5250 234° Southwest 401 461 40,000  Level FlightAware ADS-B
Fri 11:13:22 PM 38.9890 -81.6100 233° Southwest 399 459 40,000  Level FlightAware ADS-B
Fri 11:14:03 PM 38.9440 -81.6900 234° Southwest 399 459 40,000  Level FlightAware ADS-B
Fri 11:14:45 PM 38.8990 -81.7710 234° Southwest 397 457 40,000  Level FlightAware ADS-B
Fri 11:15:25 PM 38.8550 -81.8470 233° Southwest 395 455 40,000  Level FlightAware ADS-B
Fri 11:16:05 PM 38.8120 -81.9240 234° Southwest 395 455 40,000  Level FlightAware ADS-B
Fri 11:16:51 PM 38.7630 -82.0110 234° Southwest 393 452 40,000  Level FlightAware ADS-B
Fri 11:17:34 PM 38.7190 -82.0920 235° Southwest 393 452 40,000  Level FlightAware ADS-B
Fri 11:18:14 PM 38.6780 -82.1720 237° Southwest 392 451 40,000  Level FlightAware ADS-B
Fri 11:19:00 PM 38.6320 -82.2580 236° Southwest 392 451 40,000  Level FlightAware ADS-B
Fri 11:19:40 PM 38.5930 -82.3330 236° Southwest 392 451 40,000  Level FlightAware ADS-B
Fri 11:20:23 PM 38.5470 -82.4200 236° Southwest 393 452 40,000  Level FlightAware ADS-B
Fri 11:20:52 PM 38.5172 -82.4754 236° Southwest 393 452 40,000  Level FlightAware ADS-B
Fri 11:21:47 PM 38.4620 -82.5790 236° Southwest 393 452 40,000  Level FlightAware ADS-B
Fri 11:22:28 PM 38.4210 -82.6560 236° Southwest 393 452 40,000  Level FlightAware ADS-B
Fri 11:23:12 PM 38.3750 -82.7440 236° Southwest 391 450 40,000  Level FlightAware ADS-B
Fri 11:23:52 PM 38.3350 -82.8180 235° Southwest 390 449 40,000  Level FlightAware ADS-B
Fri 11:24:36 PM 38.2890 -82.9030 235° Southwest 389 448 40,000  Level FlightAware ADS-B
Fri 11:25:32 PM 38.2330 -83.0070 236° Southwest 389 448 40,000  Level FlightAware ADS-B
Fri 11:26:06 PM 38.1970 -83.0730 235° Southwest 389 448 40,000  Level FlightAware ADS-B
Fri 11:26:54 PM 38.1490 -83.1640 236° Southwest 387 445 40,000  Level FlightAware ADS-B
Fri 11:27:36 PM 38.1070 -83.2410 235° Southwest 388 447 40,000  Level FlightAware ADS-B
Fri 11:28:16 PM 38.0660 -83.3160 235° Southwest 388 447 40,000  Level FlightAware ADS-B
Fri 11:28:25 PM 38.0557 -83.3343 234° Southwest 388 447 40,000  Level FlightAware ADS-B
Fri 11:29:02 PM 38.0176 -83.4038 235° Southwest 390 449 40,000  Level FlightAware ADS-B
Fri 11:32:15 PM 37.8191 -83.7662 235° Southwest 392 451 40,000  Level FlightAware ADS-B
Fri 11:32:47 PM 37.7859 -83.8262 235° Southwest 391 450 40,000  Level FlightAware ADS-B
Fri 11:34:05 PM 37.7050 -83.9720 235° Southwest 391 450 40,000  Level FlightAware ADS-B
Fri 11:34:31 PM 37.6820 -84.0140 235° Southwest 391 450 40,000  Level FlightAware ADS-B
Fri 11:35:20 PM 37.6330 -84.1010 235° Southwest 391 450 40,000  Level FlightAware ADS-B
Fri 11:35:59 PM 37.5870 -84.1830 235° Southwest 392 451 40,000  Level FlightAware ADS-B
Fri 11:36:12 PM 37.5727 -84.2094 236° Southwest 392 451 40,000  Level FlightAware ADS-B
Fri 11:36:42 PM 37.5414 -84.2654 235° Southwest 392 451 40,000  Level FlightAware ADS-B
Fri 11:37:16 PM 37.5060 -84.3290 235° Southwest 393 452 40,000  Level FlightAware ADS-B
Fri 11:37:47 PM 37.4740 -84.3849 234° Southwest 393 452 40,000  Level FlightAware ADS-B
Fri 11:38:18 PM 37.4411 -84.4448 235° Southwest 394 453 40,000  Level FlightAware ADS-B
Fri 11:39:01 PM 37.3960 -84.5235 234° Southwest 395 455 40,000  Level FlightAware ADS-B
Fri 11:39:35 PM 37.3598 -84.5872 234° Southwest 396 456 40,000  Level FlightAware ADS-B
Fri 11:40:08 PM 37.3244 -84.6509 235° Southwest 395 455 40,000  Level FlightAware ADS-B
Fri 11:41:08 PM 37.2608 -84.7634 235° Southwest 396 456 40,000  Level FlightAware ADS-B
Fri 11:41:50 PM 37.2200 -84.8330 234° Southwest 402 463 40,000  Level FlightAware ADS-B
Fri 11:42:21 PM 37.1818 -84.9017 235° Southwest 404 465 40,000  Level FlightAware ADS-B
Fri 11:42:54 PM 37.1458 -84.9646 234° Southwest 405 466 40,000  Level FlightAware ADS-B
Fri 11:43:26 PM 37.1114 -85.0238 234° Southwest 406 467 40,000  Level FlightAware ADS-B
Fri 11:43:58 PM 37.0762 -85.0867 235° Southwest 405 466 40,000  Level FlightAware ADS-B
Fri 11:44:29 PM 37.0421 -85.1458 234° Southwest 405 466 40,000  Level FlightAware ADS-B
Fri 11:45:04 PM 37.0041 -85.2104 234° Southwest 405 466 40,000  Level FlightAware ADS-B
Fri 11:45:34 PM 36.9708 -85.2695 235° Southwest 406 467 40,000  Level FlightAware ADS-B
Fri 11:46:45 PM 36.8970 -85.3970 234° Southwest 405 466 40,000  Level FlightAware ADS-B
Fri 11:47:20 PM 36.8570 -85.4660 234° Southwest 408 470 40,000  Level FlightAware ADS-B
Fri 11:48:08 PM 36.8010 -85.5610 234° Southwest 410 472 40,000  Level FlightAware ADS-B
Fri 11:48:48 PM 36.7560 -85.6400 235° Southwest 410 472 40,000  Level FlightAware ADS-B
Fri 11:48:59 PM 36.7437 -85.6609 234° Southwest 410 472 40,000  Level FlightAware ADS-B
Fri 11:49:31 PM 36.7081 -85.7219 234° Southwest 409 471 40,000  Level FlightAware ADS-B
Fri 11:50:01 PM 36.6745 -85.7791 234° Southwest 409 471 40,000  Level FlightAware ADS-B
Fri 11:50:31 PM 36.6406 -85.8362 234° Southwest 409 471 40,000  Level FlightAware ADS-B
Fri 11:51:02 PM 36.6064 -85.8952 234° Southwest 409 471 40,000  Level FlightAware ADS-B
Fri 11:51:33 PM 36.5720 -85.9523 233° Southwest 410 472 40,000  Level FlightAware ADS-B
Fri 11:52:04 PM 36.5373 -86.0113 234° Southwest 411 473 40,000  Level FlightAware ADS-B
Fri 11:52:34 PM 36.5035 -86.0684 234° Southwest 411 473 40,000  Level FlightAware ADS-B
Fri 11:53:43 PM 36.4260 -86.1990 234° Southwest 409 471 40,000  Level FlightAware ADS-B
Fri 11:54:27 PM 36.3770 -86.2820 234° Southwest 407 468 40,000  Level FlightAware ADS-B
Fri 11:55:09 PM 36.3290 -86.3640 234° Southwest 409 471 40,000  Level FlightAware ADS-B
Fri 11:55:51 PM 36.2830 -86.4410 233° Southwest 408 470 40,000  Level FlightAware ADS-B
Fri 11:56:29 PM 36.2389 -86.5139 233° Southwest 408 470 40,000  Level FlightAware ADS-B
Fri 11:57:00 PM 36.2043 -86.5720 234° Southwest 407 468 40,000  Level FlightAware ADS-B
Fri 11:57:30 PM 36.1706 -86.6279 233° Southwest 406 467 40,000  Level FlightAware ADS-B
Fri 11:58:26 PM 36.1197 -86.7374 240° Southwest 401 461 40,000  Level FlightAware ADS-B
Fri 11:59:21 PM 36.0820 -86.8570 249° West 399 459 40,000  Level FlightAware ADS-B
Fri 11:59:42 PM 36.0684 -86.8989 248° West 401 461 40,000 -808 Level FlightAware ADS-B
Sat 12:00:13 AM 36.0476 -86.9646 249° West 401 461 39,300 -1,180 Descending FlightAware ADS-B
Sat 12:00:43 AM 36.0266 -87.0310 249° West 403 464 38,800 -1,082 Descending FlightAware ADS-B
Sat 12:01:14 AM 36.0052 -87.0973 248° West 404 465 38,200 -968 Descending FlightAware ADS-B
Sat 12:01:45 AM 35.9842 -87.1637 249° West 403 464 37,800 -885 Descending FlightAware ADS-B
Sat 12:02:15 AM 35.9634 -87.2277 248° West 404 465 37,300 -1,000 Descending FlightAware ADS-B
Sat 12:02:45 AM 35.9426 -87.2921 248° West 406 467 36,800 -973 Descending FlightAware ADS-B
Sat 12:03:29 AM 35.9120 -87.3870 248° West 409 471 36,100 -1,047 Descending FlightAware ADS-B
Sat 12:04:11 AM 35.8830 -87.4770 248° West 417 480 35,300 -750 Descending FlightAware ADS-B
Sat 12:04:57 AM 35.8490 -87.5800 248° West 428 493 35,000 -209 Descending FlightAware ADS-B
Sat 12:05:37 AM 35.8190 -87.6730 248° West 429 494 35,000  Level FlightAware ADS-B
Sat 12:06:15 AM 35.7910 -87.7570 248° West 431 496 35,000  Level FlightAware ADS-B
Sat 12:07:15 AM 35.7470 -87.8920 248° West 433 498 35,000  Level FlightAware ADS-B
Sat 12:08:15 AM 35.7050 -88.0200 248° West 431 496 35,000  Level FlightAware ADS-B
Sat 12:08:50 AM 35.6830 -88.0880 248° West 431 496 35,000  Level FlightAware ADS-B
Sat 12:09:36 AM 35.6530 -88.1770 247° West 431 496 35,000  Level FlightAware ADS-B
Sat 12:10:14 AM 35.6290 -88.2500 248° West 431 496 35,000  Level FlightAware ADS-B
Sat 12:11:02 AM 35.5990 -88.3430 248° West 431 496 35,000  Level FlightAware ADS-B
Sat 12:11:37 AM 35.5770 -88.4110 248° West 431 496 35,000  Level FlightAware ADS-B
Sat 12:12:25 AM 35.5460 -88.5030 248° West 431 496 35,000  Level FlightAware ADS-B
Sat 12:12:59 AM 35.5250 -88.5690 249° West 431 496 35,000  Level FlightAware ADS-B
Sat 12:13:47 AM 35.4940 -88.6620 248° West 431 496 35,000  Level FlightAware ADS-B
Sat 12:14:25 AM 35.4700 -88.7350 248° West 431 496 35,000  Level FlightAware ADS-B
Sat 12:16:38 AM 35.3850 -88.9910 248° West 431 496 35,000 -7,648 Level FlightAware ADS-B
Sat 12:17:38 AM 35.0731 -89.0175 248° West 369 425 10,400 -12,650 Descending Memphis Center
Sat 12:18:38 AM 35.0322 -89.0992 239° Southwest 323 372 9,700 -1,050 Descending Memphis Center
Sat 12:19:38 AM 35.0353 -89.1931 272° West 266 306 8,300 -1,400 Descending Memphis Center
Sat 12:20:38 AM 35.0403 -89.2817 274° West 266 306 6,900 -900 Descending Memphis Center
Sat 12:21:38 AM 35.0431 -89.3706 272° West 266 306 6,500 -450 Descending Memphis Center
Sat 12:22:38 AM 35.0458 -89.4517 272° West 265 305 6,000 -400 Descending Memphis Center
Sat 12:23:38 AM 35.0464 -89.5303 271° West 240 276 5,700 -650 Descending Memphis Center
Sat 12:24:38 AM 35.0489 -89.6036 272° West 223 257 4,700 -850 Descending Memphis Center
Sat 12:25:38 AM 35.0514 -89.6747 272° West 223 257 4,000 -750 Descending Memphis Center
Sat 12:26:38 AM 35.0539 -89.7406 273° West 200 230 3,200 -850 Descending Memphis Center
Sat 12:27:38 AM 35.0561 -89.7989 273° West 184 212 2,300 -650 Descending Memphis Center
Sat 12:28:38 AM 35.0564 -89.8572 270° West 178 205 1,900 -500 Descending Memphis Center
Sat 12:29:38 AM 35.0586 -89.9056 273° West 160 184 1,300 -600 Descending Memphis Center
Sat 12:30:38 AM 35.0589 -89.9411 271° West 139 160 700 -600 Descending Memphis Center
Sat 12:32:00 AM 35.0333 -89.9667 270° West  Level FlightAware Approximate
Sat 12:39:00 AM 35.0424 -89.9767 270° West  Level Estimated
Sat 12:40:00 AM 35.0424 -89.9767 270° West  Level Estimated
Sat 12:41:00 AM 35.0424 -89.9767 270° West  Level Estimated
Sat 12:42:00 AM 35.0424 -89.9767 270° West  Level Estimated
Sat 12:43:00 AM 35.0424 -89.9767 270° West  Level Estimated
Sat 12:44:00 AM 35.0424 -89.9767 270° West  Level Estimated
Sat 12:45:00 AM 35.0424 -89.9767 270° West  Level Estimated

Login

Don't have an account? Register now (free) for customized features, flight alerts, and more!